Mg Explorer — HPEZ — position and weather

sailwx.info

Track history (hours):
 
Tides and Currents Weather Stations Pressure Air Temp Water Temp Dewpoint Dewpoint Depression Visibility Wind Speed Wind Dir Waves Ship Positions

Mg Explorer

Last reported at 2017-Sep-15 01:55 UTC. Time now 2017-Sep-22 04:43 UTC.
Position S 02°11' W 044°11'.

Length 229 m; draft 14.6 m.

Type: Cargo ship. MMSI: 374832000.

Date/timePositionNaut miles runAvg speedWind from/ knotsBaromVisibWave heightAir tempDewpointWater temp
2017-Sep-15 01:55S 02°11' W 044°11'511.5
2017-Sep-15 01:30S 02°15' W 044°13'611.7
2017-Sep-15 01:01S 02°20' W 044°17'611.3
2017-Sep-15 00:31S 02°25' W 044°20'611.0
2017-Sep-15 00:01S 02°29' W 044°23'4 7.7
2017-Sep-14 23:31S 02°33' W 044°23'1 1.3
2017-Sep-14 23:01S 02°34' W 044°23'0 0.0
2017-Sep-14 22:29S 02°34' W 044°23'0 0.0
2017-Sep-14 21:56S 02°34' W 044°23'0 0.0
2017-Sep-14 21:20S 02°34' W 044°23'0 0.0
2017-Sep-14 20:59S 02°34' W 044°23'0 0.0
2017-Sep-14 20:29S 02°34' W 044°23'0 0.0
2017-Sep-14 19:53S 02°34' W 044°23'0 0.0
2017-Sep-14 19:29S 02°34' W 044°23'0 0.0
2017-Sep-14 18:56S 02°34' W 044°23'0 0.0
2017-Sep-14 18:29S 02°34' W 044°23'0 0.0
2017-Sep-14 17:59S 02°34' W 044°23'0 0.0
2017-Sep-14 17:23S 02°34' W 044°23'0 0.0
2017-Sep-14 16:59S 02°34' W 044°23'0 0.0
2017-Sep-14 16:29S 02°34' W 044°23'0 0.0
2017-Sep-14 15:59S 02°34' W 044°23'0 0.0
2017-Sep-14 15:29S 02°34' W 044°23'0 0.0
2017-Sep-14 14:56S 02°34' W 044°23'0 0.0
2017-Sep-14 14:29S 02°34' W 044°23'0 0.0
2017-Sep-14 13:59S 02°34' W 044°23'0 0.0
2017-Sep-14 13:26S 02°34' W 044°23'0 0.0
2017-Sep-14 12:56S 02°34' W 044°23'0 0.0
2017-Sep-14 12:20S 02°34' W 044°23'0 0.0
2017-Sep-14 11:59S 02°34' W 044°23'0 0.0
2017-Sep-14 11:29S 02°34' W 044°23'0 0.0
2017-Sep-14 10:50S 02°34' W 044°23'0 0.0
2017-Sep-14 10:29S 02°34' W 044°23'0 0.0
2017-Sep-14 09:59S 02°34' W 044°23'0 0.0
2017-Sep-14 09:29S 02°34' W 044°23'0 0.0
2017-Sep-14 08:59S 02°34' W 044°23'0 0.0
2017-Sep-14 08:29S 02°34' W 044°23'0 0.0
2017-Sep-14 07:59S 02°34' W 044°23'0 0.0
2017-Sep-14 07:26S 02°34' W 044°23'0 0.0
2017-Sep-14 06:59S 02°34' W 044°23'0 0.0
2017-Sep-14 06:29S 02°34' W 044°23'0 0.0
2017-Sep-14 05:56S 02°34' W 044°23'0 0.0
2017-Sep-14 05:23S 02°34' W 044°23'0 0.0
2017-Sep-14 04:59S 02°34' W 044°23'0 0.0
2017-Sep-14 04:29S 02°34' W 044°23'0 0.0
2017-Sep-14 03:59S 02°34' W 044°23'0 0.0
2017-Sep-14 03:20S 02°34' W 044°23'0 0.0
2017-Sep-14 02:56S 02°34' W 044°23'0 0.0
2017-Sep-14 02:29S 02°34' W 044°23'0 0.0
2017-Sep-14 01:59S 02°34' W 044°23'0 0.0
2017-Sep-14 01:29S 02°34' W 044°23'0 0.0
2017-Sep-14 00:59S 02°34' W 044°23'0 0.0
2017-Sep-14 00:29S 02°34' W 044°23'0 0.0
2017-Sep-13 23:59S 02°34' W 044°23'0 0.0
2017-Sep-13 23:29S 02°34' W 044°23'0 0.0
2017-Sep-13 23:00S 02°34' W 044°23'0 0.2
2017-Sep-13 22:30S 02°34' W 044°23'1 1.7
2017-Sep-13 22:00S 02°33' W 044°24'4 7.9
2017-Sep-13 21:31S 02°30' W 044°23'3 6.3
2017-Sep-13 21:00S 02°27' W 044°21'2 4.2
2017-Sep-13 20:31S 02°25' W 044°20'2 3.4
2017-Sep-13 20:00S 02°25' W 044°18'1 2.3
2017-Sep-13 19:30S 02°25' W 044°17'0 0.0
2017-Sep-13 18:54S 02°25' W 044°17'0 0.1
2017-Sep-13 18:30S 02°25' W 044°17'0 0.1
2017-Sep-13 17:57S 02°25' W 044°17'0 0.3
2017-Sep-13 17:30S 02°25' W 044°17'0 0.2
2017-Sep-13 17:00S 02°25' W 044°17'0 0.1
2017-Sep-13 16:30S 02°25' W 044°17'0 0.1
2017-Sep-13 15:57S 02°25' W 044°17'0 0.0
2017-Sep-13 15:30S 02°25' W 044°17'0 0.0
2017-Sep-13 15:00S 02°25' W 044°17'1 2.6
2017-Sep-13 14:30S 02°25' W 044°18'2 3.9
2017-Sep-13 14:00S 02°24' W 044°19'5 9.6
2017-Sep-13 13:30S 02°19' W 044°16'612.8
2017-Sep-13 13:00S 02°14' W 044°13'5 9.2
2017-Sep-13 12:30S 02°10' W 044°11'612.2
2017-Sep-13 12:01S 02°05' W 044°07'6614.9
2017-Sep-13 07:36S 01°10' W 043°31'214.0
2017-Sep-13 07:29S 01°09' W 043°30'714.0
2017-Sep-13 06:59S 01°03' W 043°27'713.9
2017-Sep-13 06:30S 00°57' W 043°24'713.8
2017-Sep-13 06:00S 00°51' W 043°21'714.2
2017-Sep-13 05:30S 00°44' W 043°17'  
2017-Sep-05 02:21N 33°35' W 016°56'  
Track history (hours):
 
Tides and Currents Weather Stations Pressure Air Temp Water Temp Dewpoint Dewpoint Depression Visibility Wind Speed Wind Dir Waves Ship Positions

Mg Explorer

Last reported at 2017-Sep-15 01:55 UTC. Time now 2017-Sep-22 04:43 UTC.
Position S 02°11' W 044°11'.

Length 229 m; draft 14.6 m.

Type: Cargo ship. MMSI: 374832000.

Date/timePositionNaut miles runAvg speedWind from/ knotsBaromVisibWave heightAir tempDewpointWater temp
2017-Sep-15 01:55S 02°11' W 044°11'511.5
2017-Sep-15 01:30S 02°15' W 044°13'611.7
2017-Sep-15 01:01S 02°20' W 044°17'611.3
2017-Sep-15 00:31S 02°25' W 044°20'611.0
2017-Sep-15 00:01S 02°29' W 044°23'4 7.7
2017-Sep-14 23:31S 02°33' W 044°23'1 1.3
2017-Sep-14 23:01S 02°34' W 044°23'0 0.0
2017-Sep-14 22:29S 02°34' W 044°23'0 0.0
2017-Sep-14 21:56S 02°34' W 044°23'0 0.0
2017-Sep-14 21:20S 02°34' W 044°23'0 0.0
2017-Sep-14 20:59S 02°34' W 044°23'0 0.0
2017-Sep-14 20:29S 02°34' W 044°23'0 0.0
2017-Sep-14 19:53S 02°34' W 044°23'0 0.0
2017-Sep-14 19:29S 02°34' W 044°23'0 0.0
2017-Sep-14 18:56S 02°34' W 044°23'0 0.0
2017-Sep-14 18:29S 02°34' W 044°23'0 0.0
2017-Sep-14 17:59S 02°34' W 044°23'0 0.0
2017-Sep-14 17:23S 02°34' W 044°23'0 0.0
2017-Sep-14 16:59S 02°34' W 044°23'0 0.0
2017-Sep-14 16:29S 02°34' W 044°23'0 0.0
2017-Sep-14 15:59S 02°34' W 044°23'0 0.0
2017-Sep-14 15:29S 02°34' W 044°23'0 0.0
2017-Sep-14 14:56S 02°34' W 044°23'0 0.0
2017-Sep-14 14:29S 02°34' W 044°23'0 0.0
2017-Sep-14 13:59S 02°34' W 044°23'0 0.0
2017-Sep-14 13:26S 02°34' W 044°23'0 0.0
2017-Sep-14 12:56S 02°34' W 044°23'0 0.0
2017-Sep-14 12:20S 02°34' W 044°23'0 0.0
2017-Sep-14 11:59S 02°34' W 044°23'0 0.0
2017-Sep-14 11:29S 02°34' W 044°23'0 0.0
2017-Sep-14 10:50S 02°34' W 044°23'0 0.0
2017-Sep-14 10:29S 02°34' W 044°23'0 0.0
2017-Sep-14 09:59S 02°34' W 044°23'0 0.0
2017-Sep-14 09:29S 02°34' W 044°23'0 0.0
2017-Sep-14 08:59S 02°34' W 044°23'0 0.0
2017-Sep-14 08:29S 02°34' W 044°23'0 0.0
2017-Sep-14 07:59S 02°34' W 044°23'0 0.0
2017-Sep-14 07:26S 02°34' W 044°23'0 0.0
2017-Sep-14 06:59S 02°34' W 044°23'0 0.0
2017-Sep-14 06:29S 02°34' W 044°23'0 0.0
2017-Sep-14 05:56S 02°34' W 044°23'0 0.0
2017-Sep-14 05:23S 02°34' W 044°23'0 0.0
2017-Sep-14 04:59S 02°34' W 044°23'0 0.0
2017-Sep-14 04:29S 02°34' W 044°23'0 0.0
2017-Sep-14 03:59S 02°34' W 044°23'0 0.0
2017-Sep-14 03:20S 02°34' W 044°23'0 0.0
2017-Sep-14 02:56S 02°34' W 044°23'0 0.0
2017-Sep-14 02:29S 02°34' W 044°23'0 0.0
2017-Sep-14 01:59S 02°34' W 044°23'0 0.0
2017-Sep-14 01:29S 02°34' W 044°23'0 0.0
2017-Sep-14 00:59S 02°34' W 044°23'0 0.0
2017-Sep-14 00:29S 02°34' W 044°23'0 0.0
2017-Sep-13 23:59S 02°34' W 044°23'0 0.0
2017-Sep-13 23:29S 02°34' W 044°23'0 0.0
2017-Sep-13 23:00S 02°34' W 044°23'0 0.2
2017-Sep-13 22:30S 02°34' W 044°23'1 1.7
2017-Sep-13 22:00S 02°33' W 044°24'4 7.9
2017-Sep-13 21:31S 02°30' W 044°23'3 6.3
2017-Sep-13 21:00S 02°27' W 044°21'2 4.2
2017-Sep-13 20:31S 02°25' W 044°20'2 3.4
2017-Sep-13 20:00S 02°25' W 044°18'1 2.3
2017-Sep-13 19:30S 02°25' W 044°17'0 0.0
2017-Sep-13 18:54S 02°25' W 044°17'0 0.1
2017-Sep-13 18:30S 02°25' W 044°17'0 0.1
2017-Sep-13 17:57S 02°25' W 044°17'0 0.3
2017-Sep-13 17:30S 02°25' W 044°17'0 0.2
2017-Sep-13 17:00S 02°25' W 044°17'0 0.1
2017-Sep-13 16:30S 02°25' W 044°17'0 0.1
2017-Sep-13 15:57S 02°25' W 044°17'0 0.0
2017-Sep-13 15:30S 02°25' W 044°17'0 0.0
2017-Sep-13 15:00S 02°25' W 044°17'1 2.6
2017-Sep-13 14:30S 02°25' W 044°18'2 3.9
2017-Sep-13 14:00S 02°24' W 044°19'5 9.6
2017-Sep-13 13:30S 02°19' W 044°16'612.8
2017-Sep-13 13:00S 02°14' W 044°13'5 9.2
2017-Sep-13 12:30S 02°10' W 044°11'612.2
2017-Sep-13 12:01S 02°05' W 044°07'6614.9
2017-Sep-13 07:36S 01°10' W 043°31'214.0
2017-Sep-13 07:29S 01°09' W 043°30'714.0
2017-Sep-13 06:59S 01°03' W 043°27'713.9
2017-Sep-13 06:30S 00°57' W 043°24'713.8
2017-Sep-13 06:00S 00°51' W 043°21'714.2
2017-Sep-13 05:30S 00°44' W 043°17'  
2017-Sep-05 02:21N 33°35' W 016°56'  

Dump ship's entire track history